Villas de San Cristobal, Puerto Rico
Current Conditions -  °F | °C
As of 5:53 AM on Thursday 27 Nov 2014 (Local Time) from TJNR Reporting Station
Clear Clear  
Wind Chill: 78°   Ceiling: Unl
Heat Index: 80°   Visibility: 10mi
Dew Point: 65°   Wind: 8mph
Humidity: 64%   Direction: 70°ENE
Pressure: 30"   Gusts: NA
Location:  18.1853°N, 65.8667°W
Report Text: TJNR 270953Z AUTO 07007KT 10SM CLR 26/18 A3000 RMK AO2 SLP159 T02560183 $
Loading
Personal Weather Stations






























Interactive Weather Map New forecast layout! Learn more

10-Day Weather Forecast

Advertisements
Track Severe Weather on mobile